.
WxDataArchive / Data Records for 2015-08-19
2015-08-18 August 2015 2015-08-20

Data Records for Wednesday, 19 August 2015

Time	Temp	Chill	HIndex	Humid	Dewpt	 Wind 	HiWind	WindDir	Rain 	Barom
-----	----	-----	------	-----	-----	------	------	-------	-----	-----
00:00	73.2	73.2	73.2	85	68.4	0	0	---	0.00	29.790 
00:05	73.2	73.2	73.2	85	68.4	0	0	---	0.00	29.790 
00:10	73.0	73.0	73.0	85	68.2	0	0	---	0.00	29.790 
00:15	73.0	73.0	73.0	85	68.2	0	0	---	0.00	29.787 
00:20	73.0	73.0	73.0	85	68.2	0	0	---	0.00	29.787 
00:25	72.8	72.8	72.8	86	68.4	0	0	---	0.00	29.787 
00:30	72.7	72.7	72.7	86	68.3	0	0	---	0.00	29.786 
00:35	72.7	72.7	72.7	86	68.3	0	0	---	0.00	29.786 
00:40	72.7	72.7	72.7	86	68.3	0	1	315	0.00	29.786 
00:45	72.7	72.7	72.7	86	68.3	0	0	---	0.00	29.777 
00:50	72.7	72.7	72.7	86	68.3	0	0	---	0.00	29.777 
00:55	72.7	72.7	72.7	86	68.3	0	1	315	0.00	29.777 
01:00	72.5	72.5	72.5	86	68.1	0	0	---	0.00	29.772 
01:05	72.3	72.3	72.3	87	68.2	0	0	---	0.00	29.772 
01:10	72.3	72.3	72.3	87	68.2	0	0	---	0.00	29.772 
01:15	72.1	72.1	72.1	87	68.0	0	0	---	0.00	29.769 
01:20	72.0	72.0	72.0	87	67.9	0	0	---	0.00	29.769 
01:25	72.0	72.0	72.0	88	68.2	0	0	---	0.00	29.769 
01:30	71.8	71.8	71.8	88	68.0	0	0	---	0.00	29.764 
01:35	71.8	71.8	71.8	88	68.0	0	1	315	0.00	29.764 
01:40	71.8	71.8	71.8	88	68.0	0	1	315	0.00	29.764 
01:45	71.8	71.8	71.8	88	68.0	0	1	315	0.00	29.760 
01:50	72.0	72.0	72.0	88	68.2	0	1	315	0.00	29.760 
01:55	72.0	72.0	72.0	88	68.2	0	1	315	0.00	29.760 
02:00	72.0	72.0	72.0	87	67.9	0	3	90	0.00	29.752 
02:05	72.0	72.0	72.0	87	67.9	0	1	90	0.00	29.752 
02:10	72.0	72.0	72.0	87	67.9	0	0	---	0.00	29.752 
02:15	72.0	72.0	72.0	87	67.9	0	0	---	0.00	29.751 
02:20	71.8	71.8	71.8	87	67.7	0	0	---	0.00	29.751 
02:25	71.8	71.8	71.8	87	67.7	0	0	---	0.00	29.751 
02:30	71.6	71.6	71.6	87	67.5	0	0	---	0.00	29.744 
02:35	71.6	71.6	71.6	87	67.5	0	0	---	0.00	29.744 
02:40	71.6	71.6	71.6	87	67.5	0	1	90	0.00	29.744 
02:45	71.6	71.6	71.6	87	67.5	0	1	90	0.00	29.743 
02:50	71.6	71.6	71.6	87	67.5	0	1	90	0.00	29.743 
02:55	71.6	71.6	71.6	87	67.5	0	1	90	0.00	29.743 
03:00	71.6	71.6	71.6	87	67.5	0	0	---	0.00	29.737 
03:05	71.6	71.6	71.6	87	67.5	0	1	90	0.00	29.737 
03:10	71.5	71.5	71.5	87	67.4	0	1	90	0.00	29.737 
03:15	71.5	71.5	71.5	87	67.4	0	1	90	0.00	29.734 
03:20	71.5	71.5	71.5	87	67.4	0	1	90	0.00	29.734 
03:25	71.3	71.3	71.3	88	67.6	0	1	90	0.00	29.734 
03:30	71.3	71.3	71.3	88	67.6	0	0	---	0.00	29.735 
03:35	71.3	71.3	71.3	88	67.6	0	1	90	0.00	29.735 
03:40	71.1	71.1	71.1	88	67.4	0	1	90	0.00	29.735 
03:45	71.1	71.1	71.1	88	67.4	0	0	---	0.00	29.730 
03:50	71.1	71.1	71.1	88	67.4	0	1	90	0.00	29.730 
03:55	70.9	70.9	70.9	88	67.2	0	2	90	0.00	29.730 
04:00	70.9	70.9	70.9	88	67.2	0	0	---	0.00	29.727 
04:05	70.9	70.9	70.9	88	67.2	0	0	---	0.00	29.727 
04:10	70.8	70.8	70.8	88	67.1	0	2	90	0.00	29.727 
04:15	70.8	70.8	70.8	88	67.1	0	1	90	0.00	29.720 
04:20	70.8	70.8	70.8	88	67.1	0	1	90	0.00	29.720 
04:25	70.6	70.6	70.6	88	66.9	0	1	90	0.00	29.720 
04:30	70.6	70.6	70.6	88	66.9	0	1	90	0.00	29.722 
04:35	70.6	70.6	70.6	88	66.9	0	1	90	0.00	29.722 
04:40	70.4	70.4	70.4	88	66.7	0	1	90	0.00	29.722 
04:45	70.4	70.4	70.4	89	67.0	0	1	90	0.00	29.723 
04:50	70.4	70.4	70.4	89	67.0	0	0	---	0.00	29.723 
04:55	70.4	70.4	70.4	89	67.0	0	0	---	0.00	29.723 
05:00	70.3	70.3	70.3	89	66.9	0	1	90	0.00	29.719 
05:05	70.3	70.3	70.3	89	66.9	0	1	90	0.00	29.719 
05:10	70.3	70.3	70.3	89	66.9	0	1	90	0.00	29.719 
05:15	70.3	70.3	70.3	89	66.9	0	1	90	0.00	29.724 
05:20	70.3	70.3	70.3	89	66.9	0	1	90	0.00	29.724 
05:25	70.3	70.3	70.3	89	66.9	0	1	90	0.00	29.724 
05:30	70.1	70.1	70.1	89	66.7	0	1	90	0.00	29.726 
05:35	70.1	70.1	70.1	89	66.7	0	1	90	0.00	29.726 
05:40	70.1	70.1	70.1	89	66.7	0	0	---	0.00	29.726 
05:45	69.9	69.9	69.9	89	66.5	0	1	90	0.00	29.736 
05:50	69.9	69.9	69.9	89	66.5	0	0	---	0.00	29.736 
05:55	69.9	69.9	69.9	89	66.5	0	1	90	0.00	29.736 
06:00	69.9	69.9	69.9	90	66.8	0	1	90	0.00	29.738 
06:05	69.9	69.9	69.9	90	66.8	0	1	90	0.00	29.738 
06:10	69.9	69.9	69.9	90	66.8	0	1	90	0.00	29.738 
06:15	69.9	69.9	69.9	90	66.8	0	1	90	0.00	29.733 
06:20	69.9	69.9	69.9	90	66.8	0	0	---	0.00	29.733 
06:25	69.8	69.8	69.8	90	66.7	0	0	---	0.00	29.733 
06:30	69.8	69.8	69.8	90	66.7	0	2	90	0.00	29.729 
06:35	69.8	69.8	69.8	90	66.7	0	0	---	0.00	29.729 
06:40	69.8	69.8	69.8	90	66.7	0	1	90	0.00	29.729 
06:45	69.8	69.8	69.8	90	66.7	0	1	90	0.00	29.732 
06:50	69.9	69.9	69.9	90	66.8	0	2	90	0.00	29.732 
06:55	69.9	69.9	69.9	90	66.8	0	3	90	0.00	29.732 
07:00	69.9	69.9	69.9	90	66.8	0	2	90	0.00	29.738 
07:05	69.9	69.9	69.9	90	66.8	0	2	90	0.00	29.738 
07:10	69.9	69.9	69.9	90	66.8	0	1	90	0.00	29.738 
07:15	69.9	69.9	69.9	90	66.8	0	0	---	0.00	29.741 
07:20	69.9	69.9	69.9	90	66.8	0	1	90	0.00	29.741 
07:25	70.1	70.1	70.1	90	67.0	0	1	90	0.00	29.741 
07:30	70.3	70.3	70.3	90	67.2	0	2	90	0.00	29.742 
07:35	70.4	70.4	70.4	89	67.0	0	2	90	0.00	29.742 
07:40	70.6	70.6	70.6	89	67.2	0	2	90	0.00	29.742 
07:45	70.8	70.8	70.8	89	67.4	0	4	90	0.00	29.740 
07:50	71.1	71.1	71.1	88	67.4	0	3	22	0.00	29.740 
07:55	71.5	71.5	71.5	88	67.7	0	2	22	0.00	29.740 
08:00	72.0	72.0	72.0	87	67.9	0	1	22	0.00	29.735 
08:05	72.5	72.5	72.5	86	68.1	0	3	68	0.00	29.735 
08:10	72.8	72.8	72.8	84	67.7	0	2	68	0.00	29.735 
08:15	73.2	73.2	73.2	84	68.1	0	1	68	0.00	29.729 
08:20	73.3	73.3	73.3	83	67.8	0	3	68	0.00	29.729 
08:25	73.3	73.3	73.3	83	67.8	0	2	68	0.00	29.729 
08:30	73.5	73.5	73.5	82	67.7	1	4	135	0.00	29.725 
08:35	73.7	73.7	73.7	82	67.9	1	3	112	0.00	29.725 
08:40	73.7	73.7	73.7	82	67.9	1	9	158	0.00	29.725 
08:45	74.0	74.0	74.0	82	68.1	0	2	270	0.00	29.724 
08:50	74.4	74.4	74.4	82	68.5	0	2	270	0.00	29.724 
08:55	74.9	74.9	74.9	81	68.7	1	4	112	0.00	29.724 
09:00	75.3	75.3	76.0	80	68.7	0	2	112	0.00	29.723 
09:05	75.4	75.4	76.1	80	68.8	0	2	112	0.00	29.723 
09:10	75.6	75.6	76.5	79	68.6	1	4	135	0.00	29.723 
09:15	75.8	75.8	76.8	79	68.8	0	3	135	0.00	29.724 
09:20	76.0	76.0	77.1	79	69.0	0	2	112	0.00	29.724 
09:25	76.1	76.1	77.3	78	68.7	0	2	90	0.00	29.724 
09:30	76.3	76.3	77.6	78	68.9	1	3	90	0.00	29.724 
09:35	76.5	76.5	77.9	78	69.1	1	6	90	0.00	29.724 
09:40	76.7	76.7	78.2	78	69.3	1	4	68	0.00	29.724 
09:45	76.7	76.7	78.2	78	69.3	0	3	68	0.00	29.717 
09:50	77.0	77.0	78.7	77	69.2	1	4	112	0.00	29.717 
09:55	77.4	77.4	79.3	77	69.6	0	3	112	0.00	29.717 
10:00	77.7	77.7	79.7	76	69.5	1	4	90	0.00	29.711 
10:05	77.9	77.9	80.0	76	69.7	1	3	112	0.00	29.711 
10:10	78.3	78.3	80.6	75	69.7	1	3	135	0.00	29.711 
10:15	78.8	78.8	81.5	75	70.2	1	3	135	0.00	29.708 
10:20	79.4	79.4	82.3	73	70.0	1	6	90	0.00	29.708 
10:25	80.1	80.1	83.4	72	70.2	1	10	112	0.00	29.708 
10:30	80.5	80.5	84.1	72	70.6	1	10	90	0.00	29.704 
10:35	80.9	80.9	84.5	70	70.2	2	6	90	0.00	29.704 
10:40	81.1	81.1	85.0	71	70.8	1	4	270	0.00	29.704 
10:45	81.2	81.2	84.8	69	70.0	1	5	90	0.00	29.706 
10:50	81.6	81.6	85.7	70	70.8	1	4	68	0.00	29.706 
10:55	81.8	81.8	85.9	69	70.6	1	4	270	0.00	29.706 
11:00	81.6	81.6	85.5	69	70.4	0	2	270	0.00	29.718 
11:05	81.2	81.2	85.0	70	70.5	1	5	292	0.00	29.718 
11:10	80.7	80.7	84.1	70	70.0	0	2	292	0.00	29.718 
11:15	80.3	80.3	83.6	71	70.0	0	2	292	0.00	29.723 
11:20	80.3	80.3	83.7	72	70.4	0	3	292	0.00	29.723 
11:25	80.7	80.7	84.3	71	70.4	0	4	292	0.00	29.723 
11:30	81.6	81.6	85.5	69	70.4	1	5	135	0.00	29.721 
11:35	82.0	82.0	86.0	68	70.4	1	5	45	0.00	29.721 
11:40	81.6	81.6	85.3	68	70.0	1	3	270	0.00	29.721 
11:45	81.1	81.1	84.5	68	69.5	0	2	270	0.00	29.717 
11:50	81.1	81.1	84.8	70	70.4	1	3	270	0.00	29.717 
11:55	81.6	81.6	85.5	69	70.4	1	4	45	0.00	29.717 
12:00	82.0	82.0	86.0	68	70.4	1	5	68	0.00	29.721 
12:05	81.8	81.8	85.3	66	69.3	1	4	248	0.00	29.721 
12:10	81.6	81.6	85.1	67	69.6	1	5	270	0.00	29.721 
12:15	81.2	81.2	84.5	67	69.2	1	3	270	0.00	29.721 
12:20	81.1	81.1	84.3	67	69.1	0	3	270	0.00	29.721 
12:25	80.9	80.9	84.0	67	68.9	1	5	270	0.00	29.721 
12:30	81.1	81.1	84.3	67	69.1	0	3	270	0.00	29.720 
12:35	81.1	81.1	84.3	67	69.1	0	2	270	0.00	29.720 
12:40	80.7	80.7	83.7	67	68.7	1	3	270	0.00	29.720 
12:45	80.3	80.3	83.2	68	68.8	1	4	248	0.00	29.721 
12:50	80.3	80.3	83.3	69	69.2	0	2	112	0.00	29.721 
12:55	80.5	80.5	83.6	69	69.4	0	2	112	0.00	29.721 
13:00	80.7	80.7	83.7	67	68.7	0	3	90	0.00	29.719 
13:05	80.7	80.7	83.8	68	69.1	0	3	315	0.00	29.719 
13:10	80.7	80.7	83.7	67	68.7	1	4	225	0.00	29.719 
13:15	80.5	80.5	83.3	67	68.5	1	5	270	0.00	29.720 
13:20	80.5	80.5	83.5	68	68.9	1	3	0	0.00	29.720 
13:25	80.5	80.5	83.3	67	68.5	1	3	270	0.00	29.720 
13:30	80.7	80.7	83.5	66	68.3	1	4	270	0.00	29.717 
13:35	80.7	80.7	83.7	67	68.7	0	2	292	0.00	29.717 
13:40	80.9	80.9	84.0	67	68.9	1	6	292	0.00	29.717 
13:45	81.1	81.1	84.3	67	69.1	0	2	315	0.00	29.717 
13:50	81.2	81.2	84.5	67	69.2	0	2	315	0.00	29.717 
13:55	81.8	81.8	84.9	64	68.4	1	4	292	0.00	29.717 
14:00	82.0	82.0	84.8	62	67.7	1	5	292	0.00	29.714 
14:05	82.6	82.6	85.7	62	68.2	1	3	292	0.00	29.714 
14:10	83.0	83.0	86.4	62	68.6	1	3	292	0.00	29.714 
14:15	82.8	82.8	85.8	61	67.9	1	3	292	0.00	29.712 
14:20	83.0	83.0	85.9	60	67.7	1	2	292	0.00	29.712 
14:25	83.0	83.0	86.4	62	68.6	1	4	292	0.00	29.712 
14:30	83.0	83.0	85.9	60	67.7	1	3	292	0.00	29.716 
14:35	83.0	83.0	86.4	62	68.6	0	2	292	0.00	29.716 
14:40	83.2	83.2	86.2	60	67.8	1	3	292	0.00	29.716 
14:45	83.0	83.0	85.7	59	67.2	1	3	292	0.00	29.712 
14:50	83.0	83.0	85.5	58	66.7	1	3	0	0.00	29.712 
14:55	83.0	83.0	85.5	58	66.7	0	2	0	0.00	29.712 
15:00	83.6	83.6	86.1	57	66.7	0	2	338	0.00	29.710 
15:05	83.8	83.8	86.2	56	66.4	1	3	292	0.00	29.710 
15:10	83.6	83.6	86.4	58	67.2	1	3	292	0.00	29.710 
15:15	84.0	84.0	86.7	57	67.1	0	3	270	0.00	29.713 
15:20	84.0	84.0	86.7	57	67.1	0	3	270	0.00	29.713 
15:25	83.8	83.8	86.0	55	65.9	1	6	270	0.00	29.713 
15:30	83.6	83.6	85.9	56	66.2	0	3	270	0.00	29.702 
15:35	83.6	83.6	86.1	57	66.7	0	3	270	0.00	29.702 
15:40	84.0	84.0	86.7	57	67.1	0	3	270	0.00	29.702 
15:45	84.3	84.3	86.7	55	66.3	1	4	338	0.00	29.692 
15:50	84.3	84.3	87.0	56	66.9	1	5	338	0.00	29.692 
15:55	84.3	84.3	87.2	57	67.4	0	2	270	0.00	29.692 
16:00	83.8	83.8	86.0	55	65.9	0	3	270	0.00	29.693 
16:05	83.2	83.2	85.6	57	66.4	0	1	270	0.00	29.693 
16:10	82.8	82.8	85.2	58	66.5	0	3	270	0.00	29.693 
16:15	82.6	82.6	85.3	60	67.3	0	2	270	0.00	29.693 
16:20	82.2	82.2	84.7	60	66.9	1	4	270	0.00	29.693 
16:25	81.8	81.8	84.3	61	67.0	0	2	270	0.00	29.693 
16:30	81.8	81.8	84.3	61	67.0	0	1	0	0.00	29.690 
16:35	81.8	81.8	84.1	60	66.5	1	2	0	0.00	29.690 
16:40	81.8	81.8	84.3	61	67.0	1	3	315	0.00	29.690 
16:45	81.8	81.8	84.1	60	66.5	1	3	270	0.00	29.683 
16:50	81.8	81.8	84.3	61	67.0	0	2	248	0.00	29.683 
16:55	82.0	82.0	84.6	61	67.2	0	2	248	0.00	29.683 
17:00	82.6	82.6	85.3	60	67.3	1	3	248	0.00	29.686 
17:05	82.8	82.8	85.2	58	66.5	0	2	248	0.00	29.686 
17:10	82.6	82.6	85.1	59	66.8	0	3	248	0.00	29.686 
17:15	82.2	82.2	84.7	60	66.9	0	2	248	0.00	29.687 
17:20	82.2	82.2	84.9	61	67.4	0	2	248	0.00	29.687 
17:25	82.2	82.2	84.9	61	67.4	0	1	248	0.00	29.687 
17:30	81.8	81.8	84.0	59	66.0	0	2	248	0.00	29.683 
17:35	81.6	81.6	83.7	59	65.9	1	4	270	0.00	29.683 
17:40	81.6	81.6	83.7	59	65.9	0	2	270	0.00	29.683 
17:45	81.8	81.8	83.6	57	65.0	0	2	270	0.00	29.678 
17:50	82.0	82.0	83.9	57	65.2	0	3	270	0.00	29.678 
17:55	82.0	82.0	83.7	56	64.7	1	4	315	0.00	29.678 
18:00	82.0	82.0	83.9	57	65.2	1	3	315	0.00	29.686 
18:05	81.8	81.8	83.6	57	65.0	1	3	315	0.00	29.686 
18:10	81.6	81.6	83.4	57	64.9	1	4	270	0.00	29.686 
18:15	81.4	81.4	83.3	58	65.2	0	3	315	0.00	29.684 
18:20	81.2	81.2	83.0	58	65.0	0	1	315	0.00	29.684 
18:25	81.1	81.1	83.0	59	65.4	0	2	315	0.00	29.684 
18:30	80.9	80.9	82.8	59	65.2	0	2	315	0.00	29.684 
18:35	80.5	80.5	82.3	59	64.8	1	3	270	0.00	29.684 
18:40	80.3	80.3	82.2	60	65.1	0	4	248	0.00	29.684 
18:45	80.3	80.3	82.2	60	65.1	0	3	270	0.00	29.691 
18:50	80.5	80.5	82.4	60	65.3	1	6	68	0.00	29.691 
18:55	80.5	80.5	82.4	60	65.3	1	2	22	0.00	29.691 
19:00	80.7	80.7	82.8	61	66.0	0	3	45	0.00	29.684 
19:05	80.5	80.5	82.7	62	66.3	0	1	45	0.00	29.684 
19:10	80.3	80.3	82.3	61	65.6	0	1	45	0.00	29.684 
19:15	80.1	80.1	82.2	62	65.9	0	2	45	0.00	29.678 
19:20	79.9	79.9	81.8	61	65.2	0	3	45	0.00	29.678 
19:25	79.8	79.8	81.8	62	65.6	0	1	270	0.00	29.678 
19:30	79.6	79.6	81.5	62	65.4	0	2	292	0.00	29.679 
19:35	79.6	79.6	81.6	63	65.9	0	2	292	0.00	29.679 
19:40	79.4	79.4	81.4	63	65.7	0	1	292	0.00	29.679 
19:45	79.4	79.4	81.5	64	66.1	0	2	292	0.00	29.679 
19:50	79.2	79.2	81.2	64	65.9	0	1	292	0.00	29.679 
19:55	79.0	79.0	81.0	64	65.8	0	1	292	0.00	29.679 
20:00	79.0	79.0	81.0	64	65.8	0	3	90	0.00	29.678 
20:05	78.8	78.8	80.8	65	66.0	0	1	90	0.00	29.678 
20:10	78.6	78.6	80.6	65	65.8	0	1	90	0.00	29.678 
20:15	78.6	78.6	80.6	66	66.3	0	2	90	0.00	29.676 
20:20	78.5	78.5	80.5	66	66.2	0	1	90	0.00	29.676 
20:25	78.3	78.3	80.3	67	66.4	0	1	90	0.00	29.676 
20:30	78.1	78.1	80.0	67	66.2	0	2	90	0.00	29.677 
20:35	78.1	78.1	80.1	68	66.7	0	0	---	0.00	29.677 
20:40	77.9	77.9	79.9	69	66.9	0	1	90	0.00	29.677 
20:45	77.7	77.7	79.6	70	67.1	0	0	---	0.00	29.680 
20:50	77.6	77.6	79.5	71	67.4	0	0	---	0.00	29.680 
20:55	77.4	77.4	79.3	71	67.2	0	1	90	0.00	29.680 
21:00	77.0	77.0	78.8	70	66.4	2	5	292	0.00	29.688 
21:05	76.1	76.1	77.7	71	66.0	2	5	292	0.00	29.688 
21:10	75.3	75.3	76.8	72	65.6	2	5	270	0.00	29.688 
21:15	74.7	74.7	74.7	74	65.8	1	2	270	0.00	29.692 
21:20	74.6	74.6	74.6	75	66.1	0	1	270	0.00	29.692 
21:25	74.4	74.4	74.4	77	66.7	0	1	270	0.00	29.692 
21:30	74.0	74.0	74.0	78	66.7	0	2	270	0.00	29.691 
21:35	73.7	73.7	73.7	80	67.1	0	0	---	0.00	29.691 
21:40	73.3	73.3	73.3	81	67.1	0	0	---	0.00	29.691 
21:45	73.2	73.2	73.2	81	67.0	0	0	---	0.00	29.692 
21:50	73.0	73.0	73.0	82	67.2	0	0	---	0.00	29.692 
21:55	72.8	72.8	72.8	83	67.3	0	0	---	0.00	29.692 
22:00	72.8	72.8	72.8	83	67.3	0	0	---	0.00	29.694 
22:05	72.7	72.7	72.7	84	67.6	0	0	---	0.00	29.694 
22:10	72.7	72.7	72.7	84	67.6	0	0	---	0.00	29.694 
22:15	72.5	72.5	72.5	84	67.4	0	0	---	0.00	29.691 
22:20	72.5	72.5	72.5	85	67.7	0	1	270	0.02	29.691 
22:25	72.1	72.1	72.1	86	67.7	0	2	270	0.05	29.691 
22:30	71.5	71.5	71.5	87	67.4	0	2	270	0.03	29.698 
22:35	71.3	71.3	71.3	88	67.6	0	1	270	0.02	29.698 
22:40	70.9	70.9	70.9	89	67.5	0	1	270	0.02	29.698 
22:45	70.8	70.8	70.8	90	67.7	0	2	270	0.04	29.698 
22:50	70.6	70.6	70.6	91	67.8	0	1	270	0.03	29.698 
22:55	70.4	70.4	70.4	91	67.6	0	2	270	0.00	29.698 
23:00	70.3	70.3	70.3	92	67.9	0	1	270	0.01	29.696 
23:05	70.3	70.3	70.3	92	67.9	0	0	---	0.01	29.696 
23:10	69.9	69.9	69.9	92	67.5	0	1	270	0.00	29.696 
23:15	69.8	69.8	69.8	92	67.4	0	1	270	0.02	29.694 
23:20	69.6	69.6	69.6	92	67.2	0	1	270	0.01	29.694 
23:25	69.4	69.4	69.4	92	67.0	0	1	270	0.00	29.694 
23:30	69.3	69.3	69.3	92	66.9	0	1	270	0.01	29.697 
23:35	69.3	69.3	69.3	93	67.2	0	1	270	0.00	29.697 
23:40	69.1	69.1	69.1	93	67.0	0	1	270	0.02	29.697 
23:45	69.1	69.1	69.1	93	67.0	0	1	270	0.01	29.697 
23:50	68.9	68.9	68.9	93	66.8	0	1	270	0.00	29.697 
23:55	68.8	68.8	68.8	93	66.7	0	1	270	0.00	29.697 

CoCoRaHS
IN-AL-39
A2 Web Hosting
Creative Commons License
GoDaddy
search engine by freefind advanced

loaded 2018-11-21 00:40:56 • last modified 2010-11-18 10:43:29
Privacy PolicyDisclaimer
• wx.awcolley.com is powered by PmWiki v.2002016 •
• all content (unless otherwise noted) © 2018 A W Colley